Time,TemperatureF,DewpointF,PressureIn,WindDirection,WindDirectionDegrees,WindSpeedMPH,WindSpeedGustMPH,Humidity,HourlyPrecipIn,Conditions,Clouds,dailyrainin,SoftwareType,DateUTC
2013-04-09 00:16:00,54.5,47.1,29.85,ENE,67,0.0,-999.0,76,-99.99,,,0.00,Acu-Link.com,2013-04-09 04:16:00,
2013-04-09 00:31:00,54.3,47.9,29.84,NNE,22,1.7,-999.0,79,-99.99,,,0.00,Acu-Link.com,2013-04-09 04:31:00,
2013-04-09 00:46:00,54.1,48.1,29.84,ENE,67,0.0,-999.0,80,-99.99,,,0.00,Acu-Link.com,2013-04-09 04:46:00,
2013-04-09 01:17:00,56.1,51.0,29.83,SSE,157,2.2,-999.0,83,-99.99,,,0.00,Acu-Link.com,2013-04-09 05:17:00,
2013-04-09 01:32:00,54.7,54.1,29.82,SSW,202,0.0,-999.0,98,-99.99,,,0.00,Acu-Link.com,2013-04-09 05:32:00,
2013-04-09 01:47:00,55.8,55.2,29.82,SSW,202,2.2,-999.0,98,-99.99,,,0.00,Acu-Link.com,2013-04-09 05:47:00,
2013-04-09 02:02:00,55.6,55.0,29.80,South,180,5.3,-999.0,98,-99.99,,,0.00,Acu-Link.com,2013-04-09 06:02:00,
2013-04-09 02:17:00,56.1,53.5,29.79,SSW,202,2.7,-999.0,91,-99.99,,,0.00,Acu-Link.com,2013-04-09 06:17:00,
2013-04-09 02:32:00,56.1,53.5,29.78,South,180,2.7,-999.0,91,-99.99,,,0.00,Acu-Link.com,2013-04-09 06:32:00,
2013-04-09 02:47:00,55.2,54.6,29.79,NNW,337,1.1,-999.0,98,-99.99,,,0.00,Acu-Link.com,2013-04-09 06:47:00,
2013-04-09 03:02:00,54.5,53.9,29.77,NNE,22,0.0,-999.0,98,-99.99,,,0.00,Acu-Link.com,2013-04-09 07:02:00,
2013-04-09 03:17:00,53.2,52.6,29.78,NE,45,2.7,-999.0,98,-99.99,,,0.00,Acu-Link.com,2013-04-09 07:17:00,
2013-04-09 03:32:00,52.3,51.8,29.77,NE,45,0.0,-999.0,98,-99.99,,,0.00,Acu-Link.com,2013-04-09 07:32:00,
2013-04-09 03:48:00,51.4,50.9,29.78,ENE,67,0.0,-999.0,98,-99.99,,,0.00,Acu-Link.com,2013-04-09 07:48:00,
2013-04-09 04:03:00,50.7,50.2,29.77,WSW,247,1.1,-999.0,98,-99.99,,,0.00,Acu-Link.com,2013-04-09 08:03:00,
2013-04-09 04:18:00,50.5,50.0,29.77,SSE,157,0.0,-999.0,98,-99.99,,,0.00,Acu-Link.com,2013-04-09 08:18:00,
2013-04-09 04:33:00,50.0,49.5,29.77,NW,315,1.1,-999.0,98,-99.99,,,0.00,Acu-Link.com,2013-04-09 08:33:00,
2013-04-09 04:49:00,49.8,49.3,29.78,North,0,0.0,-999.0,98,-99.99,,,0.00,Acu-Link.com,2013-04-09 08:49:00,
2013-04-09 05:04:00,49.6,49.1,29.78,WNW,292,0.0,-999.0,98,-99.99,,,0.00,Acu-Link.com,2013-04-09 09:04:00,
2013-04-09 05:19:00,49.3,48.8,29.77,North,0,1.7,-999.0,98,-99.99,,,0.00,Acu-Link.com,2013-04-09 09:19:00,
2013-04-09 05:34:00,48.9,48.4,29.77,North,0,2.2,-999.0,98,-99.99,,,0.00,Acu-Link.com,2013-04-09 09:34:00,
2013-04-09 05:50:00,48.9,48.4,29.78,NNE,22,2.2,-999.0,98,-99.99,,,0.00,Acu-Link.com,2013-04-09 09:50:00,
2013-04-09 06:05:00,49.1,48.6,29.77,ESE,112,0.0,-999.0,98,-99.99,,,0.00,Acu-Link.com,2013-04-09 10:05:00,
2013-04-09 06:20:00,48.9,48.4,29.78,SSW,202,0.0,-999.0,98,-99.99,,,0.00,Acu-Link.com,2013-04-09 10:20:00,
2013-04-09 06:35:00,48.4,47.9,29.78,North,0,0.0,-999.0,98,-99.99,,,0.00,Acu-Link.com,2013-04-09 10:35:00,
2013-04-09 06:50:00,50.2,49.7,29.76,South,180,3.2,-999.0,98,-99.99,,,0.00,Acu-Link.com,2013-04-09 10:50:00,
2013-04-09 07:05:00,52.9,52.4,29.76,SW,225,3.2,-999.0,98,-99.99,,,0.00,Acu-Link.com,2013-04-09 11:05:00,
2013-04-09 07:20:00,54.9,54.3,29.76,South,180,2.7,-999.0,98,-99.99,,,0.00,Acu-Link.com,2013-04-09 11:20:00,
2013-04-09 07:35:00,56.7,56.1,29.76,South,180,2.7,-999.0,98,-99.99,,,0.00,Acu-Link.com,2013-04-09 11:35:00,
2013-04-09 07:51:00,59.7,59.1,29.77,South,180,4.7,-999.0,98,-99.99,,,0.00,Acu-Link.com,2013-04-09 11:51:00,
2013-04-09 08:51:00,69.8,58.3,29.75,SW,225,10.4,-999.0,67,-99.99,,,0.00,Acu-Link.com,2013-04-09 12:51:00,
2013-04-09 09:06:00,70.9,58.1,29.76,SW,225,7.8,-999.0,64,-99.99,,,0.00,Acu-Link.com,2013-04-09 13:06:00,
2013-04-09 09:21:00,71.1,57.0,29.76,South,180,13.0,-999.0,61,-99.99,,,0.00,Acu-Link.com,2013-04-09 13:21:00,
2013-04-09 09:36:00,71.2,56.1,29.78,SW,225,1.7,-999.0,59,-99.99,,,0.00,Acu-Link.com,2013-04-09 13:36:00,
2013-04-09 09:52:00,72.3,54.7,29.78,South,180,3.7,-999.0,54,-99.99,,,0.00,Acu-Link.com,2013-04-09 13:52:00,
2013-04-09 10:07:00,73.4,55.2,29.79,NNE,22,3.7,-999.0,53,-99.99,,,0.00,Acu-Link.com,2013-04-09 14:07:00,
2013-04-09 10:22:00,73.6,54.3,29.79,West,270,10.4,-999.0,51,-99.99,,,0.00,Acu-Link.com,2013-04-09 14:22:00,
2013-04-09 10:37:00,73.4,53.6,29.79,NNW,337,3.7,-999.0,50,-99.99,,,0.00,Acu-Link.com,2013-04-09 14:37:00,
2013-04-09 10:52:00,72.9,53.2,29.81,West,270,5.8,-999.0,50,-99.99,,,0.00,Acu-Link.com,2013-04-09 14:52:00,
2013-04-09 11:07:00,74.1,52.0,29.83,NNW,337,5.3,-999.0,46,-99.99,,,0.00,Acu-Link.com,2013-04-09 15:07:00,
2013-04-09 11:22:00,74.1,52.0,29.83,West,270,6.8,-999.0,46,-99.99,,,0.00,Acu-Link.com,2013-04-09 15:22:00,
2013-04-09 11:37:00,73.8,51.7,29.83,SW,225,9.9,-999.0,46,-99.99,,,0.00,Acu-Link.com,2013-04-09 15:37:00,
2013-04-09 11:52:00,74.8,51.4,29.83,NW,315,5.3,-999.0,44,-99.99,,,0.00,Acu-Link.com,2013-04-09 15:52:00,
2013-04-09 12:08:00,75.7,50.3,29.82,NW,315,6.8,-999.0,41,-99.99,,,0.00,Acu-Link.com,2013-04-09 16:08:00,
2013-04-09 12:23:00,74.5,49.9,29.83,SW,225,11.4,-999.0,42,-99.99,,,0.00,Acu-Link.com,2013-04-09 16:23:00,
2013-04-09 12:38:00,75.6,50.2,29.83,NNW,337,4.7,-999.0,41,-99.99,,,0.00,Acu-Link.com,2013-04-09 16:38:00,
2013-04-09 12:53:00,73.9,50.0,29.83,WSW,247,6.8,-999.0,43,-99.99,,,0.00,Acu-Link.com,2013-04-09 16:53:00,
2013-04-09 13:08:00,74.5,51.1,29.83,WSW,247,5.8,-999.0,44,-99.99,,,0.00,Acu-Link.com,2013-04-09 17:08:00,
2013-04-09 13:23:00,75.6,47.5,29.83,WNW,292,5.8,-999.0,37,-99.99,,,0.00,Acu-Link.com,2013-04-09 17:23:00,
2013-04-09 13:38:00,75.6,46.0,29.85,NNE,22,7.8,-999.0,35,-99.99,,,0.00,Acu-Link.com,2013-04-09 17:38:00,
2013-04-09 13:53:00,75.4,48.7,29.83,WNW,292,8.3,-999.0,39,-99.99,,,0.00,Acu-Link.com,2013-04-09 17:53:00,
2013-04-09 14:09:00,76.5,49.0,29.83,NNW,337,10.9,-999.0,38,-99.99,,,0.00,Acu-Link.com,2013-04-09 18:09:00,
2013-04-09 14:39:00,76.3,49.5,29.83,NW,315,5.3,-999.0,39,-99.99,,,0.00,Acu-Link.com,2013-04-09 18:39:00,
2013-04-09 14:54:00,77.0,50.1,29.82,NNW,337,4.2,-999.0,39,-99.99,,,0.00,Acu-Link.com,2013-04-09 18:54:00,
2013-04-09 15:09:00,75.2,48.5,29.82,SSW,202,2.7,-999.0,39,-99.99,,,0.00,Acu-Link.com,2013-04-09 19:09:00,
2013-04-09 15:24:00,76.3,49.5,29.83,WSW,247,2.7,-999.0,39,-99.99,,,0.00,Acu-Link.com,2013-04-09 19:24:00,
2013-04-09 15:39:00,75.6,48.2,29.82,West,270,4.2,-999.0,38,-99.99,,,0.00,Acu-Link.com,2013-04-09 19:39:00,
2013-04-09 15:54:00,77.4,49.1,29.82,NNW,337,6.3,-999.0,37,-99.99,,,0.00,Acu-Link.com,2013-04-09 19:54:00,
2013-04-09 16:10:00,77.0,48.7,29.80,WSW,247,2.7,-999.0,37,-99.99,,,0.00,Acu-Link.com,2013-04-09 20:10:00,
2013-04-09 16:25:00,76.6,47.6,29.80,NNE,22,6.3,-999.0,36,-99.99,,,0.00,Acu-Link.com,2013-04-09 20:25:00,
2013-04-09 16:55:00,76.5,46.8,29.80,NNE,22,6.3,-999.0,35,-99.99,,,0.00,Acu-Link.com,2013-04-09 20:55:00,
2013-04-09 17:10:00,76.6,46.1,29.81,SE,135,2.2,-999.0,34,-99.99,,,0.00,Acu-Link.com,2013-04-09 21:10:00,
2013-04-09 17:25:00,76.1,45.7,29.81,West,270,4.2,-999.0,34,-99.99,,,0.00,Acu-Link.com,2013-04-09 21:25:00,
2013-04-09 17:40:00,76.5,46.0,29.80,WSW,247,4.7,-999.0,34,-99.99,,,0.00,Acu-Link.com,2013-04-09 21:40:00,
2013-04-09 17:55:00,76.1,44.9,29.82,NNW,337,4.2,-999.0,33,-99.99,,,0.00,Acu-Link.com,2013-04-09 21:55:00,
2013-04-09 18:11:00,75.9,44.7,29.81,NE,45,2.7,-999.0,33,-99.99,,,0.00,Acu-Link.com,2013-04-09 22:11:00,
2013-04-09 18:26:00,74.5,45.0,29.81,NNE,22,2.7,-999.0,35,-99.99,,,0.00,Acu-Link.com,2013-04-09 22:26:00,
2013-04-09 19:11:00,70.7,47.1,29.81,East,90,3.2,-999.0,43,-99.99,,,0.00,Acu-Link.com,2013-04-09 23:11:00,
2013-04-09 19:26:00,68.7,47.1,29.82,NE,45,4.2,-999.0,46,-99.99,,,0.00,Acu-Link.com,2013-04-09 23:26:00,
2013-04-09 19:41:00,67.6,47.8,29.82,NNE,22,4.2,-999.0,49,-99.99,,,0.00,Acu-Link.com,2013-04-09 23:41:00,
2013-04-09 19:56:00,66.6,47.9,29.82,NNE,22,1.1,-999.0,51,-99.99,,,0.00,Acu-Link.com,2013-04-09 23:56:00,
2013-04-09 20:11:00,64.9,47.9,29.81,NNE,22,2.2,-999.0,54,-99.99,,,0.00,Acu-Link.com,2013-04-10 00:11:00,
2013-04-09 20:26:00,64.4,47.4,29.83,SE,135,0.0,-999.0,54,-99.99,,,0.00,Acu-Link.com,2013-04-10 00:26:00,
2013-04-09 20:42:00,63.9,47.9,29.83,NNE,22,5.3,-999.0,56,-99.99,,,0.00,Acu-Link.com,2013-04-10 00:42:00,
2013-04-09 20:57:00,63.3,47.8,29.84,North,0,1.1,-999.0,57,-99.99,,,0.00,Acu-Link.com,2013-04-10 00:57:00,
2013-04-09 21:12:00,62.6,48.1,29.83,NNE,22,3.2,-999.0,59,-99.99,,,0.00,Acu-Link.com,2013-04-10 01:12:00,
2013-04-09 21:42:00,60.4,47.7,29.83,WNW,292,2.2,-999.0,63,-99.99,,,0.00,Acu-Link.com,2013-04-10 01:42:00,
2013-04-09 21:57:00,60.1,48.3,29.81,SSE,157,0.0,-999.0,65,-99.99,,,0.00,Acu-Link.com,2013-04-10 01:57:00,
2013-04-09 22:12:00,59.0,48.5,29.81,NNE,22,0.0,-999.0,68,-99.99,,,0.00,Acu-Link.com,2013-04-10 02:12:00,
2013-04-09 22:27:00,57.9,48.2,29.80,NNE,22,3.2,-999.0,70,-99.99,,,0.00,Acu-Link.com,2013-04-10 02:27:00,
2013-04-09 22:42:00,57.2,47.9,29.79,NE,45,0.0,-999.0,71,-99.99,,,0.00,Acu-Link.com,2013-04-10 02:42:00,
2013-04-09 22:58:00,56.5,47.9,29.79,ESE,112,1.7,-999.0,73,-99.99,,,0.00,Acu-Link.com,2013-04-10 02:58:00,
2013-04-09 23:13:00,56.5,47.6,29.79,NNE,22,4.2,-999.0,72,-99.99,,,0.00,Acu-Link.com,2013-04-10 03:13:00,
2013-04-09 23:28:00,56.1,47.6,29.79,ENE,67,1.1,-999.0,73,-99.99,,,0.00,Acu-Link.com,2013-04-10 03:28:00,
2013-04-09 23:43:00,55.9,47.0,29.78,ENE,67,2.2,-999.0,72,-99.99,,,0.00,Acu-Link.com,2013-04-10 03:43:00,
2013-04-09 23:58:00,56.1,46.8,29.77,NE,45,4.2,-999.0,71,-99.99,,,0.00,Acu-Link.com,2013-04-10 03:58:00,